sensor_id;sensor_type;location;lat;lon;timestamp;P1;P2;P0
32503;PMS5003;18953;45.930;13.640;2023-04-06T00:04:55;12;10;
32503;PMS5003;18953;45.930;13.640;2023-04-06T00:10:12;12;11;
32503;PMS5003;18953;45.930;13.640;2023-04-06T00:15:28;9;8;
32503;PMS5003;18953;45.930;13.640;2023-04-06T00:20:44;8;8;
32503;PMS5003;18953;45.930;13.640;2023-04-06T00:26:01;12;10;
32503;PMS5003;18953;45.930;13.640;2023-04-06T00:31:17;10;9;
32503;PMS5003;18953;45.930;13.640;2023-04-06T00:36:34;12;9;
32503;PMS5003;18953;45.930;13.640;2023-04-06T00:41:50;11;10;
32503;PMS5003;18953;45.930;13.640;2023-04-06T00:47:07;9;9;
32503;PMS5003;18953;45.930;13.640;2023-04-06T00:52:23;10;9;
32503;PMS5003;18953;45.930;13.640;2023-04-06T00:57:39;11;8;
32503;PMS5003;18953;45.930;13.640;2023-04-06T01:02:56;11;11;
32503;PMS5003;18953;45.930;13.640;2023-04-06T01:08:12;11;10;
32503;PMS5003;18953;45.930;13.640;2023-04-06T01:13:29;14;13;
32503;PMS5003;18953;45.930;13.640;2023-04-06T01:18:45;10;9;
32503;PMS5003;18953;45.930;13.640;2023-04-06T01:24:02;11;8;
32503;PMS5003;18953;45.930;13.640;2023-04-06T01:29:18;12;9;
32503;PMS5003;18953;45.930;13.640;2023-04-06T01:34:34;12;10;
32503;PMS5003;18953;45.930;13.640;2023-04-06T01:39:51;11;10;
32503;PMS5003;18953;45.930;13.640;2023-04-06T01:45:07;11;10;
32503;PMS5003;18953;45.930;13.640;2023-04-06T01:50:24;9;9;
32503;PMS5003;18953;45.930;13.640;2023-04-06T01:55:40;12;10;
32503;PMS5003;18953;45.930;13.640;2023-04-06T02:00:56;14;13;
32503;PMS5003;18953;45.930;13.640;2023-04-06T02:06:13;12;11;
32503;PMS5003;18953;45.930;13.640;2023-04-06T02:11:29;12;11;
32503;PMS5003;18953;45.930;13.640;2023-04-06T02:16:45;12;11;
32503;PMS5003;18953;45.930;13.640;2023-04-06T02:22:02;15;12;
32503;PMS5003;18953;45.930;13.640;2023-04-06T02:27:18;12;12;
32503;PMS5003;18953;45.930;13.640;2023-04-06T02:32:35;10;9;
32503;PMS5003;18953;45.930;13.640;2023-04-06T02:37:51;13;12;
32503;PMS5003;18953;45.930;13.640;2023-04-06T02:43:08;11;11;
32503;PMS5003;18953;45.930;13.640;2023-04-06T02:48:24;12;11;
32503;PMS5003;18953;45.930;13.640;2023-04-06T02:53:41;14;12;
32503;PMS5003;18953;45.930;13.640;2023-04-06T02:58:57;9;9;
32503;PMS5003;18953;45.930;13.640;2023-04-06T03:04:13;9;9;
32503;PMS5003;18953;45.930;13.640;2023-04-06T03:09:30;11;11;
32503;PMS5003;18953;45.930;13.640;2023-04-06T03:14:46;13;9;
32503;PMS5003;18953;45.930;13.640;2023-04-06T03:20:02;14;12;
32503;PMS5003;18953;45.930;13.640;2023-04-06T03:25:19;12;10;
32503;PMS5003;18953;45.930;13.640;2023-04-06T03:30:35;11;10;
32503;PMS5003;18953;45.930;13.640;2023-04-06T03:35:52;13;13;
32503;PMS5003;18953;45.930;13.640;2023-04-06T03:41:08;12;11;
32503;PMS5003;18953;45.930;13.640;2023-04-06T03:46:24;13;11;
32503;PMS5003;18953;45.930;13.640;2023-04-06T03:51:41;11;11;
32503;PMS5003;18953;45.930;13.640;2023-04-06T03:56:57;16;14;
32503;PMS5003;18953;45.930;13.640;2023-04-06T04:02:14;21;15;
32503;PMS5003;18953;45.930;13.640;2023-04-06T04:07:30;20;18;
32503;PMS5003;18953;45.930;13.640;2023-04-06T04:12:47;15;13;
32503;PMS5003;18953;45.930;13.640;2023-04-06T04:18:03;15;15;
32503;PMS5003;18953;45.930;13.640;2023-04-06T04:23:19;19;18;
32503;PMS5003;18953;45.930;13.640;2023-04-06T04:28:36;33;30;
32503;PMS5003;18953;45.930;13.640;2023-04-06T04:33:52;27;26;
32503;PMS5003;18953;45.930;13.640;2023-04-06T04:39:08;45;40;
32503;PMS5003;18953;45.930;13.640;2023-04-06T04:44:25;29;26;
32503;PMS5003;18953;45.930;13.640;2023-04-06T04:49:41;39;38;
32503;PMS5003;18953;45.930;13.640;2023-04-06T04:54:58;24;23;
32503;PMS5003;18953;45.930;13.640;2023-04-06T05:00:14;21;19;
32503;PMS5003;18953;45.930;13.640;2023-04-06T05:05:30;24;23;
32503;PMS5003;18953;45.930;13.640;2023-04-06T05:10:47;24;22;
32503;PMS5003;18953;45.930;13.640;2023-04-06T05:16:03;35;31;
32503;PMS5003;18953;45.930;13.640;2023-04-06T05:21:20;27;21;
32503;PMS5003;18953;45.930;13.640;2023-04-06T05:26:37;54;45;
32503;PMS5003;18953;45.930;13.640;2023-04-06T05:31:53;35;32;
32503;PMS5003;18953;45.930;13.640;2023-04-06T05:37:10;26;22;
32503;PMS5003;18953;45.930;13.640;2023-04-06T05:42:27;23;22;
32503;PMS5003;18953;45.930;13.640;2023-04-06T05:47:43;28;24;
32503;PMS5003;18953;45.930;13.640;2023-04-06T05:52:59;29;28;
32503;PMS5003;18953;45.930;13.640;2023-04-06T05:58:16;23;21;
32503;PMS5003;18953;45.930;13.640;2023-04-06T06:03:32;22;21;
32503;PMS5003;18953;45.930;13.640;2023-04-06T06:09:28;26;22;
32503;PMS5003;18953;45.930;13.640;2023-04-06T06:14:45;31;30;
32503;PMS5003;18953;45.930;13.640;2023-04-06T06:20:01;20;16;
32503;PMS5003;18953;45.930;13.640;2023-04-06T06:25:18;16;15;
32503;PMS5003;18953;45.930;13.640;2023-04-06T06:30:35;18;16;
32503;PMS5003;18953;45.930;13.640;2023-04-06T06:35:51;16;15;
32503;PMS5003;18953;45.930;13.640;2023-04-06T06:41:07;16;15;
32503;PMS5003;18953;45.930;13.640;2023-04-06T06:46:24;13;13;
32503;PMS5003;18953;45.930;13.640;2023-04-06T06:51:40;18;17;
32503;PMS5003;18953;45.930;13.640;2023-04-06T06:56:57;18;17;
32503;PMS5003;18953;45.930;13.640;2023-04-06T07:02:13;12;10;
32503;PMS5003;18953;45.930;13.640;2023-04-06T07:07:31;12;12;
32503;PMS5003;18953;45.930;13.640;2023-04-06T07:12:46;13;12;
32503;PMS5003;18953;45.930;13.640;2023-04-06T07:18:02;12;12;
32503;PMS5003;18953;45.930;13.640;2023-04-06T07:23:19;13;12;
32503;PMS5003;18953;45.930;13.640;2023-04-06T07:28:35;13;12;
32503;PMS5003;18953;45.930;13.640;2023-04-06T07:33:51;16;15;
32503;PMS5003;18953;45.930;13.640;2023-04-06T07:39:08;13;13;
32503;PMS5003;18953;45.930;13.640;2023-04-06T07:44:25;17;15;
32503;PMS5003;18953;45.930;13.640;2023-04-06T07:49:41;18;17;
32503;PMS5003;18953;45.930;13.640;2023-04-06T07:54:58;12;12;
32503;PMS5003;18953;45.930;13.640;2023-04-06T08:00:14;12;10;
32503;PMS5003;18953;45.930;13.640;2023-04-06T08:05:30;15;14;
32503;PMS5003;18953;45.930;13.640;2023-04-06T08:10:47;15;12;
32503;PMS5003;18953;45.930;13.640;2023-04-06T08:16:04;11;11;
32503;PMS5003;18953;45.930;13.640;2023-04-06T08:21:20;12;12;
32503;PMS5003;18953;45.930;13.640;2023-04-06T08:26:36;17;15;
32503;PMS5003;18953;45.930;13.640;2023-04-06T08:31:52;38;34;
32503;PMS5003;18953;45.930;13.640;2023-04-06T08:37:08;14;12;
32503;PMS5003;18953;45.930;13.640;2023-04-06T08:42:25;14;12;
32503;PMS5003;18953;45.930;13.640;2023-04-06T08:47:41;13;12;
32503;PMS5003;18953;45.930;13.640;2023-04-06T08:52:58;13;13;
32503;PMS5003;18953;45.930;13.640;2023-04-06T08:58:14;16;15;
32503;PMS5003;18953;45.930;13.640;2023-04-06T09:03:30;14;14;
32503;PMS5003;18953;45.930;13.640;2023-04-06T09:08:47;14;14;
32503;PMS5003;18953;45.930;13.640;2023-04-06T09:14:03;12;12;
32503;PMS5003;18953;45.930;13.640;2023-04-06T09:19:19;15;13;
32503;PMS5003;18953;45.930;13.640;2023-04-06T09:24:39;16;15;
32503;PMS5003;18953;45.930;13.640;2023-04-06T09:30:01;19;17;
32503;PMS5003;18953;45.930;13.640;2023-04-06T09:35:09;12;12;
32503;PMS5003;18953;45.930;13.640;2023-04-06T09:40:25;13;13;
32503;PMS5003;18953;45.930;13.640;2023-04-06T09:45:41;14;13;
32503;PMS5003;18953;45.930;13.640;2023-04-06T09:50:59;15;15;
32503;PMS5003;18953;45.930;13.640;2023-04-06T09:56:16;14;13;
32503;PMS5003;18953;45.930;13.640;2023-04-06T10:01:32;14;14;
32503;PMS5003;18953;45.930;13.640;2023-04-06T10:06:47;13;13;
32503;PMS5003;18953;45.930;13.640;2023-04-06T10:12:03;13;13;
32503;PMS5003;18953;45.930;13.640;2023-04-06T10:17:20;14;13;
32503;PMS5003;18953;45.930;13.640;2023-04-06T10:22:36;15;14;
32503;PMS5003;18953;45.930;13.640;2023-04-06T10:27:58;27;25;
32503;PMS5003;18953;45.930;13.640;2023-04-06T10:33:12;13;12;
32503;PMS5003;18953;45.930;13.640;2023-04-06T10:38:33;14;13;
32503;PMS5003;18953;45.930;13.640;2023-04-06T10:43:42;12;12;
32503;PMS5003;18953;45.930;13.640;2023-04-06T10:49:09;14;13;
32503;PMS5003;18953;45.930;13.640;2023-04-06T10:54:14;13;13;
32503;PMS5003;18953;45.930;13.640;2023-04-06T10:59:30;22;20;
32503;PMS5003;18953;45.930;13.640;2023-04-06T11:04:53;17;15;
32503;PMS5003;18953;45.930;13.640;2023-04-06T11:10:03;15;14;
32503;PMS5003;18953;45.930;13.640;2023-04-06T11:15:20;14;13;
32503;PMS5003;18953;45.930;13.640;2023-04-06T11:20:36;15;15;
32503;PMS5003;18953;45.930;13.640;2023-04-06T11:25:54;14;13;
32503;PMS5003;18953;45.930;13.640;2023-04-06T11:31:09;14;14;
32503;PMS5003;18953;45.930;13.640;2023-04-06T11:36:27;13;13;
32503;PMS5003;18953;45.930;13.640;2023-04-06T11:41:41;14;13;
32503;PMS5003;18953;45.930;13.640;2023-04-06T11:46:58;43;36;
32503;PMS5003;18953;45.930;13.640;2023-04-06T11:52:15;22;21;
32503;PMS5003;18953;45.930;13.640;2023-04-06T11:57:31;16;16;
32503;PMS5003;18953;45.930;13.640;2023-04-06T12:02:48;16;14;
32503;PMS5003;18953;45.930;13.640;2023-04-06T12:08:04;14;14;
32503;PMS5003;18953;45.930;13.640;2023-04-06T12:13:20;15;14;
32503;PMS5003;18953;45.930;13.640;2023-04-06T12:18:36;14;13;
32503;PMS5003;18953;45.930;13.640;2023-04-06T12:23:53;20;16;
32503;PMS5003;18953;45.930;13.640;2023-04-06T12:29:09;15;13;
32503;PMS5003;18953;45.930;13.640;2023-04-06T12:34:25;18;16;
32503;PMS5003;18953;45.930;13.640;2023-04-06T12:39:42;22;20;
32503;PMS5003;18953;45.930;13.640;2023-04-06T12:44:59;17;14;
32503;PMS5003;18953;45.930;13.640;2023-04-06T12:50:16;18;15;
32503;PMS5003;18953;45.930;13.640;2023-04-06T12:55:32;21;17;
32503;PMS5003;18953;45.930;13.640;2023-04-06T13:00:49;17;15;
32503;PMS5003;18953;45.930;13.640;2023-04-06T13:06:05;16;16;
32503;PMS5003;18953;45.930;13.640;2023-04-06T13:11:22;17;17;
32503;PMS5003;18953;45.930;13.640;2023-04-06T13:16:38;16;16;
32503;PMS5003;18953;45.930;13.640;2023-04-06T13:21:54;17;15;
32503;PMS5003;18953;45.930;13.640;2023-04-06T13:27:11;19;16;
32503;PMS5003;18953;45.930;13.640;2023-04-06T13:32:27;17;15;
32503;PMS5003;18953;45.930;13.640;2023-04-06T13:37:43;17;15;
32503;PMS5003;18953;45.930;13.640;2023-04-06T13:43:00;18;17;
32503;PMS5003;18953;45.930;13.640;2023-04-06T13:48:16;19;18;
32503;PMS5003;18953;45.930;13.640;2023-04-06T13:53:33;22;20;
32503;PMS5003;18953;45.930;13.640;2023-04-06T13:58:49;22;19;
32503;PMS5003;18953;45.930;13.640;2023-04-06T14:04:05;23;19;
32503;PMS5003;18953;45.930;13.640;2023-04-06T14:09:22;21;20;
32503;PMS5003;18953;45.930;13.640;2023-04-06T14:14:38;22;21;
32503;PMS5003;18953;45.930;13.640;2023-04-06T14:19:54;21;18;
32503;PMS5003;18953;45.930;13.640;2023-04-06T14:25:11;24;21;
32503;PMS5003;18953;45.930;13.640;2023-04-06T14:30:29;22;20;
32503;PMS5003;18953;45.930;13.640;2023-04-06T14:35:44;30;25;
32503;PMS5003;18953;45.930;13.640;2023-04-06T14:41:01;23;21;
32503;PMS5003;18953;45.930;13.640;2023-04-06T14:46:17;21;21;
32503;PMS5003;18953;45.930;13.640;2023-04-06T14:51:34;22;20;
32503;PMS5003;18953;45.930;13.640;2023-04-06T14:56:50;24;21;
32503;PMS5003;18953;45.930;13.640;2023-04-06T15:02:06;24;22;
32503;PMS5003;18953;45.930;13.640;2023-04-06T15:07:23;26;24;
32503;PMS5003;18953;45.930;13.640;2023-04-06T15:12:39;22;22;
32503;PMS5003;18953;45.930;13.640;2023-04-06T15:17:55;24;20;
32503;PMS5003;18953;45.930;13.640;2023-04-06T15:23:11;25;21;
32503;PMS5003;18953;45.930;13.640;2023-04-06T15:28:28;23;21;
32503;PMS5003;18953;45.930;13.640;2023-04-06T15:33:44;24;19;
32503;PMS5003;18953;45.930;13.640;2023-04-06T15:39:01;22;19;
32503;PMS5003;18953;45.930;13.640;2023-04-06T15:44:17;29;26;
32503;PMS5003;18953;45.930;13.640;2023-04-06T15:49:34;28;28;
32503;PMS5003;18953;45.930;13.640;2023-04-06T15:54:50;26;24;
32503;PMS5003;18953;45.930;13.640;2023-04-06T16:00:07;26;23;
32503;PMS5003;18953;45.930;13.640;2023-04-06T16:05:23;56;44;
32503;PMS5003;18953;45.930;13.640;2023-04-06T16:10:40;35;30;
32503;PMS5003;18953;45.930;13.640;2023-04-06T16:15:56;34;29;
32503;PMS5003;18953;45.930;13.640;2023-04-06T16:21:14;23;20;
32503;PMS5003;18953;45.930;13.640;2023-04-06T16:26:29;29;26;
32503;PMS5003;18953;45.930;13.640;2023-04-06T16:31:45;23;22;
32503;PMS5003;18953;45.930;13.640;2023-04-06T16:37:02;37;34;
32503;PMS5003;18953;45.930;13.640;2023-04-06T16:42:18;36;29;
32503;PMS5003;18953;45.930;13.640;2023-04-06T16:47:35;23;19;
32503;PMS5003;18953;45.930;13.640;2023-04-06T16:52:52;49;37;
32503;PMS5003;18953;45.930;13.640;2023-04-06T16:58:09;30;28;
32503;PMS5003;18953;45.930;13.640;2023-04-06T17:03:25;36;32;
32503;PMS5003;18953;45.930;13.640;2023-04-06T17:08:42;23;19;
32503;PMS5003;18953;45.930;13.640;2023-04-06T17:13:58;41;32;
32503;PMS5003;18953;45.930;13.640;2023-04-06T17:19:15;28;24;
32503;PMS5003;18953;45.930;13.640;2023-04-06T17:24:31;24;21;
32503;PMS5003;18953;45.930;13.640;2023-04-06T17:29:48;26;25;
32503;PMS5003;18953;45.930;13.640;2023-04-06T17:35:04;20;19;
32503;PMS5003;18953;45.930;13.640;2023-04-06T17:40:21;22;19;
32503;PMS5003;18953;45.930;13.640;2023-04-06T17:45:37;22;20;
32503;PMS5003;18953;45.930;13.640;2023-04-06T17:50:53;23;20;
32503;PMS5003;18953;45.930;13.640;2023-04-06T17:56:10;29;23;
32503;PMS5003;18953;45.930;13.640;2023-04-06T18:01:26;26;23;
32503;PMS5003;18953;45.930;13.640;2023-04-06T18:06:42;29;26;
32503;PMS5003;18953;45.930;13.640;2023-04-06T18:11:59;38;34;
32503;PMS5003;18953;45.930;13.640;2023-04-06T18:17:15;26;24;
32503;PMS5003;18953;45.930;13.640;2023-04-06T18:22:32;36;32;
32503;PMS5003;18953;45.930;13.640;2023-04-06T18:27:48;28;25;
32503;PMS5003;18953;45.930;13.640;2023-04-06T18:33:04;28;26;
32503;PMS5003;18953;45.930;13.640;2023-04-06T18:38:21;56;44;
32503;PMS5003;18953;45.930;13.640;2023-04-06T18:43:38;55;45;
32503;PMS5003;18953;45.930;13.640;2023-04-06T18:48:55;64;51;
32503;PMS5003;18953;45.930;13.640;2023-04-06T18:54:12;65;52;
32503;PMS5003;18953;45.930;13.640;2023-04-06T18:59:28;46;39;
32503;PMS5003;18953;45.930;13.640;2023-04-06T19:04:45;38;35;
32503;PMS5003;18953;45.930;13.640;2023-04-06T19:10:02;95;74;
32503;PMS5003;18953;45.930;13.640;2023-04-06T19:15:19;63;49;
32503;PMS5003;18953;45.930;13.640;2023-04-06T19:20:35;46;39;
32503;PMS5003;18953;45.930;13.640;2023-04-06T19:25:52;40;37;
32503;PMS5003;18953;45.930;13.640;2023-04-06T19:31:09;62;51;
32503;PMS5003;18953;45.930;13.640;2023-04-06T19:36:25;37;33;
32503;PMS5003;18953;45.930;13.640;2023-04-06T19:41:42;34;31;
32503;PMS5003;18953;45.930;13.640;2023-04-06T19:46:58;74;55;
32503;PMS5003;18953;45.930;13.640;2023-04-06T19:52:15;62;48;
32503;PMS5003;18953;45.930;13.640;2023-04-06T19:57:31;67;51;
32503;PMS5003;18953;45.930;13.640;2023-04-06T20:02:47;48;41;
32503;PMS5003;18953;45.930;13.640;2023-04-06T20:08:04;34;33;
32503;PMS5003;18953;45.930;13.640;2023-04-06T20:13:20;42;34;
32503;PMS5003;18953;45.930;13.640;2023-04-06T20:18:36;60;50;
32503;PMS5003;18953;45.930;13.640;2023-04-06T20:23:53;49;41;
32503;PMS5003;18953;45.930;13.640;2023-04-06T20:29:09;36;34;
32503;PMS5003;18953;45.930;13.640;2023-04-06T20:34:26;36;29;
32503;PMS5003;18953;45.930;13.640;2023-04-06T20:39:42;29;26;
32503;PMS5003;18953;45.930;13.640;2023-04-06T20:44:58;28;26;
32503;PMS5003;18953;45.930;13.640;2023-04-06T20:50:15;29;26;
32503;PMS5003;18953;45.930;13.640;2023-04-06T20:55:31;34;29;
32503;PMS5003;18953;45.930;13.640;2023-04-06T21:00:48;41;34;
32503;PMS5003;18953;45.930;13.640;2023-04-06T21:06:04;32;29;
32503;PMS5003;18953;45.930;13.640;2023-04-06T21:11:21;30;28;
32503;PMS5003;18953;45.930;13.640;2023-04-06T21:16:37;30;28;
32503;PMS5003;18953;45.930;13.640;2023-04-06T21:21:54;49;40;
32503;PMS5003;18953;45.930;13.640;2023-04-06T21:27:10;60;47;
32503;PMS5003;18953;45.930;13.640;2023-04-06T21:32:27;37;32;
32503;PMS5003;18953;45.930;13.640;2023-04-06T21:37:43;27;25;
32503;PMS5003;18953;45.930;13.640;2023-04-06T21:43:00;31;30;
32503;PMS5003;18953;45.930;13.640;2023-04-06T21:48:16;29;28;
32503;PMS5003;18953;45.930;13.640;2023-04-06T21:53:33;34;29;
32503;PMS5003;18953;45.930;13.640;2023-04-06T21:58:50;48;43;
32503;PMS5003;18953;45.930;13.640;2023-04-06T22:04:06;29;26;
32503;PMS5003;18953;45.930;13.640;2023-04-06T22:09:23;27;24;
32503;PMS5003;18953;45.930;13.640;2023-04-06T22:14:40;33;29;
32503;PMS5003;18953;45.930;13.640;2023-04-06T22:19:56;28;27;
32503;PMS5003;18953;45.930;13.640;2023-04-06T22:25:13;32;28;
32503;PMS5003;18953;45.930;13.640;2023-04-06T22:30:29;32;28;
32503;PMS5003;18953;45.930;13.640;2023-04-06T22:35:46;30;28;
32503;PMS5003;18953;45.930;13.640;2023-04-06T22:41:02;32;27;
32503;PMS5003;18953;45.930;13.640;2023-04-06T22:46:19;55;45;
32503;PMS5003;18953;45.930;13.640;2023-04-06T22:51:35;32;30;
32503;PMS5003;18953;45.930;13.640;2023-04-06T22:56:52;28;26;
32503;PMS5003;18953;45.930;13.640;2023-04-06T23:02:08;27;24;
32503;PMS5003;18953;45.930;13.640;2023-04-06T23:07:25;26;23;
32503;PMS5003;18953;45.930;13.640;2023-04-06T23:12:41;30;27;
32503;PMS5003;18953;45.930;13.640;2023-04-06T23:17:58;30;24;
32503;PMS5003;18953;45.930;13.640;2023-04-06T23:23:14;36;28;
32503;PMS5003;18953;45.930;13.640;2023-04-06T23:28:30;28;25;
32503;PMS5003;18953;45.930;13.640;2023-04-06T23:33:47;29;27;
32503;PMS5003;18953;45.930;13.640;2023-04-06T23:39:03;30;26;
32503;PMS5003;18953;45.930;13.640;2023-04-06T23:44:20;31;27;
32503;PMS5003;18953;45.930;13.640;2023-04-06T23:49:36;28;25;
32503;PMS5003;18953;45.930;13.640;2023-04-06T23:54:52;29;25;
